sensor_id;sensor_type;location;lat;lon;timestamp;P1;durP1;ratioP1;P2;durP2;ratioP2
15667;SDS011;7934;48.710;9.024;2023-08-01T00:02:13;5.00;;;3.77;;
15667;SDS011;7934;48.710;9.024;2023-08-01T00:04:42;5.70;;;3.80;;
15667;SDS011;7934;48.710;9.024;2023-08-01T00:07:09;4.30;;;3.87;;
15667;SDS011;7934;48.710;9.024;2023-08-01T00:09:36;6.73;;;4.33;;
15667;SDS011;7934;48.710;9.024;2023-08-01T00:12:04;4.23;;;3.67;;
15667;SDS011;7934;48.710;9.024;2023-08-01T00:14:31;4.30;;;3.67;;
15667;SDS011;7934;48.710;9.024;2023-08-01T00:16:58;7.87;;;4.20;;
15667;SDS011;7934;48.710;9.024;2023-08-01T00:19:27;4.00;;;3.60;;
15667;SDS011;7934;48.710;9.024;2023-08-01T00:21:54;5.00;;;3.80;;
15667;SDS011;7934;48.710;9.024;2023-08-01T00:24:21;8.97;;;3.90;;
15667;SDS011;7934;48.710;9.024;2023-08-01T00:26:49;4.50;;;4.10;;
15667;SDS011;7934;48.710;9.024;2023-08-01T00:29:20;5.37;;;3.90;;
15667;SDS011;7934;48.710;9.024;2023-08-01T00:31:47;3.63;;;3.33;;
15667;SDS011;7934;48.710;9.024;2023-08-01T00:34:14;4.67;;;4.00;;
15667;SDS011;7934;48.710;9.024;2023-08-01T00:36:42;5.53;;;4.10;;
15667;SDS011;7934;48.710;9.024;2023-08-01T00:39:09;4.10;;;3.73;;
15667;SDS011;7934;48.710;9.024;2023-08-01T00:41:37;5.70;;;3.90;;
15667;SDS011;7934;48.710;9.024;2023-08-01T00:44:04;5.10;;;3.60;;
15667;SDS011;7934;48.710;9.024;2023-08-01T00:46:31;3.60;;;3.30;;
15667;SDS011;7934;48.710;9.024;2023-08-01T00:48:58;4.00;;;3.70;;
15667;SDS011;7934;48.710;9.024;2023-08-01T00:51:26;3.97;;;3.67;;
15667;SDS011;7934;48.710;9.024;2023-08-01T00:53:54;5.53;;;3.80;;
15667;SDS011;7934;48.710;9.024;2023-08-01T00:56:22;4.83;;;4.20;;
15667;SDS011;7934;48.710;9.024;2023-08-01T00:58:49;5.97;;;3.40;;
15667;SDS011;7934;48.710;9.024;2023-08-01T01:01:16;5.63;;;4.13;;
15667;SDS011;7934;48.710;9.024;2023-08-01T01:03:43;3.90;;;3.60;;
15667;SDS011;7934;48.710;9.024;2023-08-01T01:06:12;4.17;;;3.87;;
15667;SDS011;7934;48.710;9.024;2023-08-01T01:08:42;3.33;;;3.10;;
15667;SDS011;7934;48.710;9.024;2023-08-01T01:11:10;7.90;;;3.97;;
15667;SDS011;7934;48.710;9.024;2023-08-01T01:13:37;4.80;;;4.33;;
15667;SDS011;7934;48.710;9.024;2023-08-01T01:16:04;7.17;;;4.00;;
15667;SDS011;7934;48.710;9.024;2023-08-01T01:18:31;4.33;;;3.73;;
15667;SDS011;7934;48.710;9.024;2023-08-01T01:21:00;4.50;;;3.77;;
15667;SDS011;7934;48.710;9.024;2023-08-01T01:23:27;6.97;;;4.47;;
15667;SDS011;7934;48.710;9.024;2023-08-01T01:25:54;6.60;;;4.00;;
15667;SDS011;7934;48.710;9.024;2023-08-01T01:28:23;5.67;;;4.00;;
15667;SDS011;7934;48.710;9.024;2023-08-01T01:30:51;5.27;;;3.67;;
15667;SDS011;7934;48.710;9.024;2023-08-01T01:33:19;6.50;;;3.87;;
15667;SDS011;7934;48.710;9.024;2023-08-01T01:35:46;7.30;;;4.00;;
15667;SDS011;7934;48.710;9.024;2023-08-01T01:38:15;4.60;;;3.87;;
15667;SDS011;7934;48.710;9.024;2023-08-01T01:40:43;5.57;;;4.57;;
15667;SDS011;7934;48.710;9.024;2023-08-01T01:43:10;6.77;;;4.37;;
15667;SDS011;7934;48.710;9.024;2023-08-01T01:45:37;10.27;;;4.30;;
15667;SDS011;7934;48.710;9.024;2023-08-01T01:48:04;9.30;;;4.57;;
15667;SDS011;7934;48.710;9.024;2023-08-01T01:50:31;6.60;;;4.40;;
15667;SDS011;7934;48.710;9.024;2023-08-01T01:52:59;6.90;;;4.83;;
15667;SDS011;7934;48.710;9.024;2023-08-01T01:55:27;5.30;;;4.57;;
15667;SDS011;7934;48.710;9.024;2023-08-01T01:57:55;5.70;;;4.70;;
15667;SDS011;7934;48.710;9.024;2023-08-01T02:00:22;8.10;;;4.70;;
15667;SDS011;7934;48.710;9.024;2023-08-01T02:02:49;5.43;;;4.63;;
15667;SDS011;7934;48.710;9.024;2023-08-01T02:05:16;6.37;;;4.97;;
15667;SDS011;7934;48.710;9.024;2023-08-01T02:07:43;5.27;;;4.77;;
15667;SDS011;7934;48.710;9.024;2023-08-01T02:10:10;7.57;;;4.60;;
15667;SDS011;7934;48.710;9.024;2023-08-01T02:12:39;7.50;;;4.10;;
15667;SDS011;7934;48.710;9.024;2023-08-01T02:15:06;8.83;;;4.23;;
15667;SDS011;7934;48.710;9.024;2023-08-01T02:17:33;5.83;;;4.93;;
15667;SDS011;7934;48.710;9.024;2023-08-01T02:20:00;5.47;;;4.80;;
15667;SDS011;7934;48.710;9.024;2023-08-01T02:22:28;10.00;;;4.40;;
15667;SDS011;7934;48.710;9.024;2023-08-01T02:24:55;6.40;;;4.80;;
15667;SDS011;7934;48.710;9.024;2023-08-01T02:27:22;8.27;;;4.43;;
15667;SDS011;7934;48.710;9.024;2023-08-01T02:29:51;8.20;;;4.73;;
15667;SDS011;7934;48.710;9.024;2023-08-01T02:32:18;6.03;;;4.40;;
15667;SDS011;7934;48.710;9.024;2023-08-01T02:34:45;7.23;;;4.57;;
15667;SDS011;7934;48.710;9.024;2023-08-01T02:37:13;5.80;;;4.67;;
15667;SDS011;7934;48.710;9.024;2023-08-01T02:39:40;10.33;;;4.53;;
15667;SDS011;7934;48.710;9.024;2023-08-01T02:42:07;6.50;;;4.60;;
15667;SDS011;7934;48.710;9.024;2023-08-01T02:44:34;5.33;;;4.50;;
15667;SDS011;7934;48.710;9.024;2023-08-01T02:47:03;6.53;;;5.07;;
15667;SDS011;7934;48.710;9.024;2023-08-01T02:49:31;8.00;;;4.80;;
15667;SDS011;7934;48.710;9.024;2023-08-01T02:51:58;7.23;;;5.00;;
15667;SDS011;7934;48.710;9.024;2023-08-01T02:54:25;6.40;;;4.73;;
15667;SDS011;7934;48.710;9.024;2023-08-01T02:56:52;5.47;;;4.67;;
15667;SDS011;7934;48.710;9.024;2023-08-01T02:59:19;5.67;;;5.17;;
15667;SDS011;7934;48.710;9.024;2023-08-01T03:01:46;10.67;;;4.73;;
15667;SDS011;7934;48.710;9.024;2023-08-01T03:04:15;5.30;;;4.80;;
15667;SDS011;7934;48.710;9.024;2023-08-01T03:06:42;5.70;;;4.73;;
15667;SDS011;7934;48.710;9.024;2023-08-01T03:09:09;4.90;;;4.50;;
15667;SDS011;7934;48.710;9.024;2023-08-01T03:11:36;6.20;;;5.30;;
15667;SDS011;7934;48.710;9.024;2023-08-01T03:14:03;7.03;;;4.77;;
15667;SDS011;7934;48.710;9.024;2023-08-01T03:16:30;11.97;;;4.93;;
15667;SDS011;7934;48.710;9.024;2023-08-01T03:18:57;6.13;;;4.50;;
15667;SDS011;7934;48.710;9.024;2023-08-01T03:21:31;7.37;;;4.50;;
15667;SDS011;7934;48.710;9.024;2023-08-01T03:23:58;6.10;;;4.27;;
15667;SDS011;7934;48.710;9.024;2023-08-01T03:26:26;8.50;;;4.60;;
15667;SDS011;7934;48.710;9.024;2023-08-01T03:28:54;4.93;;;4.33;;
15667;SDS011;7934;48.710;9.024;2023-08-01T03:31:21;8.87;;;4.53;;
15667;SDS011;7934;48.710;9.024;2023-08-01T03:33:48;5.73;;;4.40;;
15667;SDS011;7934;48.710;9.024;2023-08-01T03:36:16;6.80;;;4.53;;
15667;SDS011;7934;48.710;9.024;2023-08-01T03:38:44;4.83;;;4.17;;
15667;SDS011;7934;48.710;9.024;2023-08-01T03:41:11;8.23;;;4.60;;
15667;SDS011;7934;48.710;9.024;2023-08-01T03:43:38;4.50;;;4.10;;
15667;SDS011;7934;48.710;9.024;2023-08-01T03:46:06;9.70;;;4.00;;
15667;SDS011;7934;48.710;9.024;2023-08-01T03:48:34;5.27;;;3.60;;
15667;SDS011;7934;48.710;9.024;2023-08-01T03:51:01;6.83;;;3.87;;
15667;SDS011;7934;48.710;9.024;2023-08-01T03:53:29;5.93;;;3.90;;
15667;SDS011;7934;48.710;9.024;2023-08-01T03:55:57;6.63;;;4.40;;
15667;SDS011;7934;48.710;9.024;2023-08-01T03:58:24;6.10;;;4.00;;
15667;SDS011;7934;48.710;9.024;2023-08-01T04:00:51;4.53;;;3.87;;
15667;SDS011;7934;48.710;9.024;2023-08-01T04:03:19;3.80;;;3.50;;
15667;SDS011;7934;48.710;9.024;2023-08-01T04:05:46;4.13;;;3.77;;
15667;SDS011;7934;48.710;9.024;2023-08-01T04:08:13;4.43;;;3.73;;
15667;SDS011;7934;48.710;9.024;2023-08-01T04:10:41;4.77;;;3.93;;
15667;SDS011;7934;48.710;9.024;2023-08-01T04:13:09;8.07;;;3.97;;
15667;SDS011;7934;48.710;9.024;2023-08-01T04:15:36;6.23;;;3.70;;
15667;SDS011;7934;48.710;9.024;2023-08-01T04:18:03;3.70;;;3.27;;
15667;SDS011;7934;48.710;9.024;2023-08-01T04:20:30;3.90;;;3.67;;
15667;SDS011;7934;48.710;9.024;2023-08-01T04:22:58;5.27;;;3.50;;
15667;SDS011;7934;48.710;9.024;2023-08-01T04:25:25;3.97;;;3.67;;
15667;SDS011;7934;48.710;9.024;2023-08-01T04:27:52;7.53;;;4.20;;
15667;SDS011;7934;48.710;9.024;2023-08-01T04:30:21;5.63;;;3.70;;
15667;SDS011;7934;48.710;9.024;2023-08-01T04:32:48;5.17;;;3.87;;
15667;SDS011;7934;48.710;9.024;2023-08-01T04:35:15;6.70;;;4.10;;
15667;SDS011;7934;48.710;9.024;2023-08-01T04:37:42;6.13;;;3.60;;
15667;SDS011;7934;48.710;9.024;2023-08-01T04:40:10;3.97;;;3.40;;
15667;SDS011;7934;48.710;9.024;2023-08-01T04:42:37;4.20;;;3.00;;
15667;SDS011;7934;48.710;9.024;2023-08-01T04:45:04;7.20;;;4.13;;
15667;SDS011;7934;48.710;9.024;2023-08-01T04:47:34;5.70;;;3.90;;
15667;SDS011;7934;48.710;9.024;2023-08-01T04:50:01;4.57;;;3.43;;
15667;SDS011;7934;48.710;9.024;2023-08-01T04:52:28;3.53;;;3.20;;
15667;SDS011;7934;48.710;9.024;2023-08-01T04:54:55;5.63;;;3.50;;
15667;SDS011;7934;48.710;9.024;2023-08-01T04:57:22;4.10;;;3.57;;
15667;SDS011;7934;48.710;9.024;2023-08-01T04:59:49;4.40;;;3.33;;
15667;SDS011;7934;48.710;9.024;2023-08-01T05:02:16;5.10;;;3.63;;
15667;SDS011;7934;48.710;9.024;2023-08-01T05:04:45;6.53;;;3.73;;
15667;SDS011;7934;48.710;9.024;2023-08-01T05:07:12;6.97;;;4.03;;
15667;SDS011;7934;48.710;9.024;2023-08-01T05:09:39;6.43;;;4.33;;
15667;SDS011;7934;48.710;9.024;2023-08-01T05:12:06;5.07;;;3.70;;
15667;SDS011;7934;48.710;9.024;2023-08-01T05:14:34;5.50;;;3.87;;
15667;SDS011;7934;48.710;9.024;2023-08-01T05:17:01;4.67;;;3.37;;
15667;SDS011;7934;48.710;9.024;2023-08-01T05:19:28;5.60;;;3.80;;
15667;SDS011;7934;48.710;9.024;2023-08-01T05:21:57;6.07;;;4.17;;
15667;SDS011;7934;48.710;9.024;2023-08-01T05:24:24;4.43;;;4.03;;
15667;SDS011;7934;48.710;9.024;2023-08-01T05:26:51;7.70;;;4.27;;
15667;SDS011;7934;48.710;9.024;2023-08-01T05:29:18;5.67;;;4.30;;
15667;SDS011;7934;48.710;9.024;2023-08-01T05:31:45;4.57;;;4.13;;
15667;SDS011;7934;48.710;9.024;2023-08-01T05:34:12;4.20;;;3.57;;
15667;SDS011;7934;48.710;9.024;2023-08-01T05:36:40;6.67;;;4.47;;
15667;SDS011;7934;48.710;9.024;2023-08-01T05:39:08;4.37;;;3.93;;
15667;SDS011;7934;48.710;9.024;2023-08-01T05:41:35;4.30;;;3.90;;
15667;SDS011;7934;48.710;9.024;2023-08-01T05:44:03;9.27;;;4.47;;
15667;SDS011;7934;48.710;9.024;2023-08-01T05:46:30;6.03;;;4.13;;
15667;SDS011;7934;48.710;9.024;2023-08-01T05:48:57;6.80;;;4.10;;
15667;SDS011;7934;48.710;9.024;2023-08-01T05:51:24;7.03;;;4.43;;
15667;SDS011;7934;48.710;9.024;2023-08-01T05:53:52;6.63;;;4.00;;
15667;SDS011;7934;48.710;9.024;2023-08-01T05:56:20;5.67;;;4.13;;
15667;SDS011;7934;48.710;9.024;2023-08-01T05:58:47;4.53;;;4.13;;
15667;SDS011;7934;48.710;9.024;2023-08-01T06:01:15;6.67;;;4.20;;
15667;SDS011;7934;48.710;9.024;2023-08-01T06:03:42;6.77;;;4.23;;
15667;SDS011;7934;48.710;9.024;2023-08-01T06:06:10;10.70;;;4.30;;
15667;SDS011;7934;48.710;9.024;2023-08-01T06:08:37;5.07;;;4.47;;
15667;SDS011;7934;48.710;9.024;2023-08-01T06:11:04;5.75;;;4.53;;
15667;SDS011;7934;48.710;9.024;2023-08-01T06:13:32;5.03;;;4.43;;
15667;SDS011;7934;48.710;9.024;2023-08-01T06:16:00;5.90;;;3.80;;
15667;SDS011;7934;48.710;9.024;2023-08-01T06:18:27;4.03;;;3.63;;
15667;SDS011;7934;48.710;9.024;2023-08-01T06:20:54;4.95;;;4.50;;
15667;SDS011;7934;48.710;9.024;2023-08-01T06:23:21;4.77;;;4.10;;
15667;SDS011;7934;48.710;9.024;2023-08-01T06:25:48;6.07;;;4.20;;
15667;SDS011;7934;48.710;9.024;2023-08-01T06:28:15;6.93;;;4.27;;
15667;SDS011;7934;48.710;9.024;2023-08-01T06:30:44;6.27;;;4.77;;
15667;SDS011;7934;48.710;9.024;2023-08-01T06:33:12;5.10;;;4.33;;
15667;SDS011;7934;48.710;9.024;2023-08-01T06:35:39;5.83;;;4.87;;
15667;SDS011;7934;48.710;9.024;2023-08-01T06:38:06;7.65;;;5.60;;
15667;SDS011;7934;48.710;9.024;2023-08-01T06:40:33;7.60;;;5.63;;
15667;SDS011;7934;48.710;9.024;2023-08-01T06:43:00;6.23;;;5.20;;
15667;SDS011;7934;48.710;9.024;2023-08-01T06:45:27;9.93;;;5.43;;
15667;SDS011;7934;48.710;9.024;2023-08-01T06:47:56;12.00;;;6.10;;
15667;SDS011;7934;48.710;9.024;2023-08-01T06:50:23;6.93;;;5.77;;
15667;SDS011;7934;48.710;9.024;2023-08-01T06:52:50;9.53;;;6.53;;
15667;SDS011;7934;48.710;9.024;2023-08-01T06:55:17;8.67;;;6.10;;
15667;SDS011;7934;48.710;9.024;2023-08-01T06:57:44;8.48;;;6.95;;
15667;SDS011;7934;48.710;9.024;2023-08-01T07:00:12;8.50;;;5.93;;
15667;SDS011;7934;48.710;9.024;2023-08-01T07:02:39;6.93;;;6.23;;
15667;SDS011;7934;48.710;9.024;2023-08-01T07:05:08;8.57;;;6.03;;
15667;SDS011;7934;48.710;9.024;2023-08-01T07:07:35;8.70;;;6.13;;
15667;SDS011;7934;48.710;9.024;2023-08-01T07:10:02;8.43;;;5.90;;
15667;SDS011;7934;48.710;9.024;2023-08-01T07:12:29;8.40;;;6.00;;
15667;SDS011;7934;48.710;9.024;2023-08-01T07:14:56;7.23;;;5.07;;
15667;SDS011;7934;48.710;9.024;2023-08-01T07:17:24;10.10;;;6.27;;
15667;SDS011;7934;48.710;9.024;2023-08-01T07:19:51;7.47;;;5.30;;
15667;SDS011;7934;48.710;9.024;2023-08-01T07:22:20;8.93;;;6.10;;
15667;SDS011;7934;48.710;9.024;2023-08-01T07:24:47;9.00;;;6.00;;
15667;SDS011;7934;48.710;9.024;2023-08-01T07:27:14;8.53;;;5.17;;
15667;SDS011;7934;48.710;9.024;2023-08-01T07:29:41;9.17;;;5.40;;
15667;SDS011;7934;48.710;9.024;2023-08-01T07:32:08;7.13;;;5.00;;
15667;SDS011;7934;48.710;9.024;2023-08-01T07:34:35;7.47;;;5.10;;
15667;SDS011;7934;48.710;9.024;2023-08-01T07:37:03;7.80;;;5.00;;
15667;SDS011;7934;48.710;9.024;2023-08-01T07:39:31;10.80;;;5.27;;
15667;SDS011;7934;48.710;9.024;2023-08-01T07:42:00;9.57;;;5.13;;
15667;SDS011;7934;48.710;9.024;2023-08-01T07:44:27;7.73;;;4.33;;
15667;SDS011;7934;48.710;9.024;2023-08-01T07:46:54;11.13;;;4.20;;
15667;SDS011;7934;48.710;9.024;2023-08-01T07:49:21;6.57;;;3.87;;
15667;SDS011;7934;48.710;9.024;2023-08-01T07:51:48;4.07;;;3.67;;
15667;SDS011;7934;48.710;9.024;2023-08-01T07:54:16;5.27;;;3.27;;
15667;SDS011;7934;48.710;9.024;2023-08-01T07:56:45;3.43;;;2.80;;
15667;SDS011;7934;48.710;9.024;2023-08-01T07:59:14;4.67;;;3.60;;
15667;SDS011;7934;48.710;9.024;2023-08-01T08:01:41;3.97;;;3.20;;
15667;SDS011;7934;48.710;9.024;2023-08-01T08:04:08;3.47;;;3.17;;
15667;SDS011;7934;48.710;9.024;2023-08-01T08:06:35;4.60;;;3.40;;
15667;SDS011;7934;48.710;9.024;2023-08-01T08:09:02;4.90;;;3.20;;
15667;SDS011;7934;48.710;9.024;2023-08-01T08:11:30;6.03;;;3.57;;
15667;SDS011;7934;48.710;9.024;2023-08-01T08:13:59;4.40;;;3.30;;
15667;SDS011;7934;48.710;9.024;2023-08-01T08:16:26;3.53;;;3.23;;
15667;SDS011;7934;48.710;9.024;2023-08-01T08:18:54;3.67;;;2.97;;
15667;SDS011;7934;48.710;9.024;2023-08-01T08:21:21;7.27;;;4.37;;
15667;SDS011;7934;48.710;9.024;2023-08-01T08:23:48;3.27;;;3.07;;
15667;SDS011;7934;48.710;9.024;2023-08-01T08:26:15;5.57;;;3.10;;
15667;SDS011;7934;48.710;9.024;2023-08-01T08:28:42;4.97;;;3.40;;
15667;SDS011;7934;48.710;9.024;2023-08-01T08:31:11;4.23;;;3.57;;
15667;SDS011;7934;48.710;9.024;2023-08-01T08:33:38;3.83;;;3.53;;
15667;SDS011;7934;48.710;9.024;2023-08-01T08:36:05;6.37;;;4.40;;
15667;SDS011;7934;48.710;9.024;2023-08-01T08:38:32;4.10;;;3.67;;
15667;SDS011;7934;48.710;9.024;2023-08-01T08:41:02;5.17;;;3.20;;
15667;SDS011;7934;48.710;9.024;2023-08-01T08:43:33;4.13;;;3.40;;
15667;SDS011;7934;48.710;9.024;2023-08-01T08:46:01;4.00;;;3.70;;
15667;SDS011;7934;48.710;9.024;2023-08-01T08:48:29;6.70;;;3.80;;
15667;SDS011;7934;48.710;9.024;2023-08-01T08:50:57;3.70;;;3.33;;
15667;SDS011;7934;48.710;9.024;2023-08-01T08:53:25;5.33;;;4.00;;
15667;SDS011;7934;48.710;9.024;2023-08-01T08:55:52;5.37;;;3.50;;
15667;SDS011;7934;48.710;9.024;2023-08-01T08:58:19;4.03;;;3.30;;
15667;SDS011;7934;48.710;9.024;2023-08-01T09:00:47;3.70;;;3.17;;
15667;SDS011;7934;48.710;9.024;2023-08-01T09:03:15;3.43;;;3.13;;
15667;SDS011;7934;48.710;9.024;2023-08-01T09:05:47;3.10;;;2.90;;
15667;SDS011;7934;48.710;9.024;2023-08-01T09:08:16;4.37;;;3.33;;
15667;SDS011;7934;48.710;9.024;2023-08-01T09:10:44;3.37;;;3.07;;
15667;SDS011;7934;48.710;9.024;2023-08-01T09:13:12;4.73;;;2.93;;
15667;SDS011;7934;48.710;9.024;2023-08-01T09:15:40;2.80;;;2.60;;
15667;SDS011;7934;48.710;9.024;2023-08-01T09:18:08;2.80;;;2.50;;
15667;SDS011;7934;48.710;9.024;2023-08-01T09:20:42;3.73;;;2.63;;
15667;SDS011;7934;48.710;9.024;2023-08-01T09:23:11;3.17;;;2.87;;
15667;SDS011;7934;48.710;9.024;2023-08-01T09:25:39;3.47;;;2.70;;
15667;SDS011;7934;48.710;9.024;2023-08-01T09:28:18;5.10;;;2.50;;
15667;SDS011;7934;48.710;9.024;2023-08-01T09:30:47;4.30;;;2.00;;
15667;SDS011;7934;48.710;9.024;2023-08-01T09:33:13;2.23;;;2.13;;
15667;SDS011;7934;48.710;9.024;2023-08-01T09:35:41;2.43;;;2.23;;
15667;SDS011;7934;48.710;9.024;2023-08-01T09:38:09;2.10;;;1.90;;
15667;SDS011;7934;48.710;9.024;2023-08-01T09:40:38;2.97;;;1.60;;
15667;SDS011;7934;48.710;9.024;2023-08-01T09:43:05;1.73;;;1.43;;
15667;SDS011;7934;48.710;9.024;2023-08-01T09:45:32;1.13;;;1.13;;
15667;SDS011;7934;48.710;9.024;2023-08-01T09:48:00;0.83;;;0.83;;
15667;SDS011;7934;48.710;9.024;2023-08-01T09:50:27;1.40;;;1.10;;
15667;SDS011;7934;48.710;9.024;2023-08-01T09:52:54;1.40;;;1.20;;
15667;SDS011;7934;48.710;9.024;2023-08-01T09:55:26;1.10;;;1.03;;
15667;SDS011;7934;48.710;9.024;2023-08-01T09:57:58;2.20;;;1.20;;
15667;SDS011;7934;48.710;9.024;2023-08-01T10:00:26;1.70;;;1.00;;
15667;SDS011;7934;48.710;9.024;2023-08-01T10:02:53;0.87;;;0.77;;
15667;SDS011;7934;48.710;9.024;2023-08-01T10:05:22;1.60;;;0.70;;
15667;SDS011;7934;48.710;9.024;2023-08-01T10:07:49;1.13;;;0.87;;
15667;SDS011;7934;48.710;9.024;2023-08-01T10:10:17;3.13;;;0.83;;
15667;SDS011;7934;48.710;9.024;2023-08-01T10:12:45;0.80;;;0.80;;
15667;SDS011;7934;48.710;9.024;2023-08-01T10:15:15;0.83;;;0.70;;
15667;SDS011;7934;48.710;9.024;2023-08-01T10:17:42;0.70;;;0.70;;
15667;SDS011;7934;48.710;9.024;2023-08-01T10:20:10;1.00;;;1.00;;
15667;SDS011;7934;48.710;9.024;2023-08-01T10:22:39;1.80;;;1.10;;
15667;SDS011;7934;48.710;9.024;2023-08-01T10:25:07;0.80;;;0.80;;
15667;SDS011;7934;48.710;9.024;2023-08-01T10:27:35;2.80;;;0.70;;
15667;SDS011;7934;48.710;9.024;2023-08-01T10:30:02;1.57;;;0.60;;
15667;SDS011;7934;48.710;9.024;2023-08-01T10:32:32;0.60;;;0.60;;
15667;SDS011;7934;48.710;9.024;2023-08-01T10:35:00;0.93;;;0.93;;
15667;SDS011;7934;48.710;9.024;2023-08-01T10:37:26;0.80;;;0.80;;
15667;SDS011;7934;48.710;9.024;2023-08-01T10:39:56;0.80;;;0.80;;
15667;SDS011;7934;48.710;9.024;2023-08-01T10:42:24;1.07;;;0.73;;
15667;SDS011;7934;48.710;9.024;2023-08-01T10:44:51;0.57;;;0.57;;
15667;SDS011;7934;48.710;9.024;2023-08-01T10:47:24;0.97;;;0.70;;
15667;SDS011;7934;48.710;9.024;2023-08-01T10:49:53;0.90;;;0.90;;
15667;SDS011;7934;48.710;9.024;2023-08-01T10:52:21;1.00;;;1.00;;
15667;SDS011;7934;48.710;9.024;2023-08-01T10:54:55;0.97;;;0.90;;
15667;SDS011;7934;48.710;9.024;2023-08-01T10:57:23;0.80;;;0.80;;
15667;SDS011;7934;48.710;9.024;2023-08-01T10:59:50;0.87;;;0.87;;
15667;SDS011;7934;48.710;9.024;2023-08-01T11:02:20;1.00;;;1.00;;
15667;SDS011;7934;48.710;9.024;2023-08-01T11:07:34;0.83;;;0.83;;
15667;SDS011;7934;48.710;9.024;2023-08-01T11:10:05;0.80;;;0.80;;
15667;SDS011;7934;48.710;9.024;2023-08-01T11:12:33;1.60;;;0.90;;
15667;SDS011;7934;48.710;9.024;2023-08-01T11:15:01;1.07;;;0.93;;
15667;SDS011;7934;48.710;9.024;2023-08-01T11:17:30;0.97;;;0.97;;
15667;SDS011;7934;48.710;9.024;2023-08-01T11:20:01;2.53;;;1.00;;
15667;SDS011;7934;48.710;9.024;2023-08-01T11:22:29;1.10;;;1.10;;
15667;SDS011;7934;48.710;9.024;2023-08-01T11:24:58;1.10;;;1.10;;
15667;SDS011;7934;48.710;9.024;2023-08-01T11:27:25;1.00;;;1.00;;
15667;SDS011;7934;48.710;9.024;2023-08-01T11:29:52;1.57;;;0.80;;
15667;SDS011;7934;48.710;9.024;2023-08-01T11:32:20;1.03;;;1.03;;
15667;SDS011;7934;48.710;9.024;2023-08-01T11:34:48;2.00;;;1.20;;
15667;SDS011;7934;48.710;9.024;2023-08-01T11:37:17;1.00;;;1.00;;
15667;SDS011;7934;48.710;9.024;2023-08-01T11:39:45;3.93;;;1.03;;
15667;SDS011;7934;48.710;9.024;2023-08-01T11:42:17;1.20;;;1.10;;
15667;SDS011;7934;48.710;9.024;2023-08-01T11:44:44;1.33;;;1.23;;
15667;SDS011;7934;48.710;9.024;2023-08-01T11:47:12;1.17;;;1.17;;
15667;SDS011;7934;48.710;9.024;2023-08-01T11:49:39;1.43;;;1.00;;
15667;SDS011;7934;48.710;9.024;2023-08-01T11:52:21;1.23;;;1.00;;
15667;SDS011;7934;48.710;9.024;2023-08-01T11:54:48;1.43;;;1.07;;
15667;SDS011;7934;48.710;9.024;2023-08-01T11:57:15;1.00;;;0.90;;
15667;SDS011;7934;48.710;9.024;2023-08-01T11:59:47;0.80;;;0.80;;
15667;SDS011;7934;48.710;9.024;2023-08-01T12:02:21;0.87;;;0.87;;
15667;SDS011;7934;48.710;9.024;2023-08-01T12:04:49;2.50;;;1.20;;
15667;SDS011;7934;48.710;9.024;2023-08-01T12:07:16;1.63;;;1.00;;
15667;SDS011;7934;48.710;9.024;2023-08-01T12:09:43;1.00;;;0.97;;
15667;SDS011;7934;48.710;9.024;2023-08-01T12:12:11;3.77;;;1.30;;
15667;SDS011;7934;48.710;9.024;2023-08-01T12:14:41;0.83;;;0.83;;
15667;SDS011;7934;48.710;9.024;2023-08-01T12:17:10;1.00;;;1.00;;
15667;SDS011;7934;48.710;9.024;2023-08-01T12:19:37;1.03;;;1.03;;
15667;SDS011;7934;48.710;9.024;2023-08-01T12:22:04;1.37;;;1.27;;
15667;SDS011;7934;48.710;9.024;2023-08-01T12:24:31;1.40;;;1.30;;
15667;SDS011;7934;48.710;9.024;2023-08-01T12:27:02;1.20;;;1.17;;
15667;SDS011;7934;48.710;9.024;2023-08-01T12:29:29;0.90;;;0.90;;
15667;SDS011;7934;48.710;9.024;2023-08-01T12:31:56;1.20;;;1.20;;
15667;SDS011;7934;48.710;9.024;2023-08-01T12:34:24;1.07;;;0.90;;
15667;SDS011;7934;48.710;9.024;2023-08-01T12:36:52;1.10;;;1.10;;
15667;SDS011;7934;48.710;9.024;2023-08-01T12:39:19;1.43;;;1.17;;
15667;SDS011;7934;48.710;9.024;2023-08-01T12:41:46;2.40;;;1.30;;
15667;SDS011;7934;48.710;9.024;2023-08-01T12:44:13;1.23;;;1.20;;
15667;SDS011;7934;48.710;9.024;2023-08-01T12:46:42;2.17;;;1.27;;
15667;SDS011;7934;48.710;9.024;2023-08-01T12:49:09;1.00;;;1.00;;
15667;SDS011;7934;48.710;9.024;2023-08-01T12:51:38;0.90;;;0.90;;
15667;SDS011;7934;48.710;9.024;2023-08-01T12:54:05;1.13;;;1.03;;
15667;SDS011;7934;48.710;9.024;2023-08-01T12:56:32;2.77;;;1.67;;
15667;SDS011;7934;48.710;9.024;2023-08-01T12:58:59;1.27;;;1.27;;
15667;SDS011;7934;48.710;9.024;2023-08-01T13:01:26;1.63;;;1.17;;
15667;SDS011;7934;48.710;9.024;2023-08-01T13:03:56;1.90;;;1.10;;
15667;SDS011;7934;48.710;9.024;2023-08-01T13:06:23;1.73;;;1.10;;
15667;SDS011;7934;48.710;9.024;2023-08-01T13:08:51;2.23;;;1.23;;
15667;SDS011;7934;48.710;9.024;2023-08-01T13:11:18;1.47;;;1.37;;
15667;SDS011;7934;48.710;9.024;2023-08-01T13:13:45;1.73;;;1.30;;
15667;SDS011;7934;48.710;9.024;2023-08-01T13:16:12;1.83;;;1.20;;
15667;SDS011;7934;48.710;9.024;2023-08-01T13:18:40;1.87;;;1.43;;
15667;SDS011;7934;48.710;9.024;2023-08-01T13:21:09;2.77;;;1.30;;
15667;SDS011;7934;48.710;9.024;2023-08-01T13:23:37;1.80;;;1.50;;
15667;SDS011;7934;48.710;9.024;2023-08-01T13:26:05;1.20;;;1.20;;
15667;SDS011;7934;48.710;9.024;2023-08-01T13:28:32;1.10;;;1.10;;
15667;SDS011;7934;48.710;9.024;2023-08-01T13:30:59;1.57;;;1.30;;
15667;SDS011;7934;48.710;9.024;2023-08-01T13:33:26;1.20;;;1.03;;
15667;SDS011;7934;48.710;9.024;2023-08-01T13:35:54;1.20;;;1.20;;
15667;SDS011;7934;48.710;9.024;2023-08-01T13:38:22;1.40;;;1.30;;
15667;SDS011;7934;48.710;9.024;2023-08-01T13:40:49;3.17;;;1.20;;
15667;SDS011;7934;48.710;9.024;2023-08-01T13:43:18;1.60;;;1.30;;
15667;SDS011;7934;48.710;9.024;2023-08-01T13:45:45;1.47;;;1.37;;
15667;SDS011;7934;48.710;9.024;2023-08-01T13:48:12;1.30;;;1.30;;
15667;SDS011;7934;48.710;9.024;2023-08-01T13:50:39;1.80;;;1.70;;
15667;SDS011;7934;48.710;9.024;2023-08-01T13:53:06;1.37;;;1.20;;
15667;SDS011;7934;48.710;9.024;2023-08-01T13:55:37;1.17;;;1.17;;
15667;SDS011;7934;48.710;9.024;2023-08-01T13:58:04;1.20;;;1.20;;
15667;SDS011;7934;48.710;9.024;2023-08-01T14:00:32;1.80;;;1.70;;
15667;SDS011;7934;48.710;9.024;2023-08-01T14:02:59;1.43;;;1.33;;
15667;SDS011;7934;48.710;9.024;2023-08-01T14:05:27;2.47;;;1.00;;
15667;SDS011;7934;48.710;9.024;2023-08-01T14:07:54;1.60;;;1.50;;
15667;SDS011;7934;48.710;9.024;2023-08-01T14:10:22;3.10;;;1.20;;
15667;SDS011;7934;48.710;9.024;2023-08-01T14:12:49;2.20;;;1.20;;
15667;SDS011;7934;48.710;9.024;2023-08-01T14:15:16;1.67;;;1.37;;
15667;SDS011;7934;48.710;9.024;2023-08-01T14:17:44;5.50;;;1.40;;
15667;SDS011;7934;48.710;9.024;2023-08-01T14:20:11;1.40;;;1.30;;
15667;SDS011;7934;48.710;9.024;2023-08-01T14:22:40;1.70;;;1.60;;
15667;SDS011;7934;48.710;9.024;2023-08-01T14:25:08;2.60;;;1.40;;
15667;SDS011;7934;48.710;9.024;2023-08-01T14:27:36;1.43;;;1.30;;
15667;SDS011;7934;48.710;9.024;2023-08-01T14:30:03;1.47;;;1.47;;
15667;SDS011;7934;48.710;9.024;2023-08-01T14:32:31;1.10;;;1.10;;
15667;SDS011;7934;48.710;9.024;2023-08-01T14:35:00;1.83;;;1.53;;
15667;SDS011;7934;48.710;9.024;2023-08-01T14:37:27;2.53;;;1.50;;
15667;SDS011;7934;48.710;9.024;2023-08-01T14:39:54;1.67;;;1.57;;
15667;SDS011;7934;48.710;9.024;2023-08-01T14:42:23;1.50;;;1.40;;
15667;SDS011;7934;48.710;9.024;2023-08-01T14:44:53;1.87;;;1.37;;
15667;SDS011;7934;48.710;9.024;2023-08-01T14:47:22;1.53;;;1.40;;
15667;SDS011;7934;48.710;9.024;2023-08-01T14:49:49;1.53;;;1.43;;
15667;SDS011;7934;48.710;9.024;2023-08-01T14:52:17;1.37;;;1.37;;
15667;SDS011;7934;48.710;9.024;2023-08-01T14:54:45;2.30;;;1.50;;
15667;SDS011;7934;48.710;9.024;2023-08-01T14:57:12;1.50;;;1.50;;
15667;SDS011;7934;48.710;9.024;2023-08-01T14:59:39;1.80;;;1.70;;
15667;SDS011;7934;48.710;9.024;2023-08-01T15:02:06;1.50;;;1.40;;
15667;SDS011;7934;48.710;9.024;2023-08-01T15:04:33;1.40;;;1.40;;
15667;SDS011;7934;48.710;9.024;2023-08-01T15:07:02;4.67;;;1.43;;